sensor_id;sensor_type;location;lat;lon;timestamp;P1;durP1;ratioP1;P2;durP2;ratioP2
57071;SDS011;42956;51.366;11.298;2022-11-11T00:00:58;7.85;;;3.55;;
57071;SDS011;42956;51.366;11.298;2022-11-11T00:03:27;10.20;;;4.03;;
57071;SDS011;42956;51.366;11.298;2022-11-11T00:05:59;11.68;;;3.42;;
57071;SDS011;42956;51.366;11.298;2022-11-11T00:08:27;13.82;;;3.90;;
57071;SDS011;42956;51.366;11.298;2022-11-11T00:10:59;8.05;;;4.43;;
57071;SDS011;42956;51.366;11.298;2022-11-11T00:16:03;6.03;;;3.67;;
57071;SDS011;42956;51.366;11.298;2022-11-11T00:18:31;10.57;;;4.25;;
57071;SDS011;42956;51.366;11.298;2022-11-11T00:21:16;11.02;;;3.20;;
57071;SDS011;42956;51.366;11.298;2022-11-11T00:24:18;11.93;;;3.77;;
57071;SDS011;42956;51.366;11.298;2022-11-11T00:27:04;7.53;;;3.13;;
57071;SDS011;42956;51.366;11.298;2022-11-11T00:29:33;12.35;;;4.40;;
57071;SDS011;42956;51.366;11.298;2022-11-11T00:32:02;9.23;;;4.10;;
57071;SDS011;42956;51.366;11.298;2022-11-11T00:34:52;16.90;;;4.43;;
57071;SDS011;42956;51.366;11.298;2022-11-11T00:37:38;8.88;;;3.65;;
57071;SDS011;42956;51.366;11.298;2022-11-11T00:40:07;10.85;;;4.50;;
57071;SDS011;42956;51.366;11.298;2022-11-11T00:42:37;28.02;;;4.65;;
57071;SDS011;42956;51.366;11.298;2022-11-11T00:45:08;14.23;;;3.63;;
57071;SDS011;42956;51.366;11.298;2022-11-11T00:47:38;11.60;;;3.80;;
57071;SDS011;42956;51.366;11.298;2022-11-11T00:50:24;11.20;;;3.97;;
57071;SDS011;42956;51.366;11.298;2022-11-11T00:53:11;9.75;;;3.85;;
57071;SDS011;42956;51.366;11.298;2022-11-11T00:55:47;10.35;;;3.90;;
57071;SDS011;42956;51.366;11.298;2022-11-11T00:58:15;7.72;;;3.60;;
57071;SDS011;42956;51.366;11.298;2022-11-11T01:00:43;13.27;;;4.07;;
57071;SDS011;42956;51.366;11.298;2022-11-11T01:03:12;10.90;;;4.45;;
57071;SDS011;42956;51.366;11.298;2022-11-11T01:05:40;11.98;;;4.20;;
57071;SDS011;42956;51.366;11.298;2022-11-11T01:08:11;10.70;;;3.47;;
57071;SDS011;42956;51.366;11.298;2022-11-11T01:10:39;11.25;;;4.40;;
57071;SDS011;42956;51.366;11.298;2022-11-11T01:13:14;9.55;;;4.65;;
57071;SDS011;42956;51.366;11.298;2022-11-11T01:15:43;14.43;;;4.32;;
57071;SDS011;42956;51.366;11.298;2022-11-11T01:18:13;11.15;;;3.83;;
57071;SDS011;42956;51.366;11.298;2022-11-11T01:20:41;11.55;;;3.22;;
57071;SDS011;42956;51.366;11.298;2022-11-11T01:23:10;8.45;;;4.65;;
57071;SDS011;42956;51.366;11.298;2022-11-11T01:25:40;12.27;;;4.13;;
57071;SDS011;42956;51.366;11.298;2022-11-11T01:28:08;7.05;;;3.60;;
57071;SDS011;42956;51.366;11.298;2022-11-11T01:30:36;9.35;;;3.70;;
57071;SDS011;42956;51.366;11.298;2022-11-11T01:33:08;12.82;;;4.18;;
57071;SDS011;42956;51.366;11.298;2022-11-11T01:35:38;11.00;;;4.10;;
57071;SDS011;42956;51.366;11.298;2022-11-11T01:38:06;12.32;;;4.32;;
57071;SDS011;42956;51.366;11.298;2022-11-11T01:40:45;10.43;;;4.07;;
57071;SDS011;42956;51.366;11.298;2022-11-11T01:43:15;10.35;;;3.97;;
57071;SDS011;42956;51.366;11.298;2022-11-11T01:45:45;12.35;;;4.20;;
57071;SDS011;42956;51.366;11.298;2022-11-11T01:48:16;15.55;;;4.50;;
57071;SDS011;42956;51.366;11.298;2022-11-11T01:51:03;10.65;;;3.67;;
57071;SDS011;42956;51.366;11.298;2022-11-11T01:53:32;15.60;;;4.10;;
57071;SDS011;42956;51.366;11.298;2022-11-11T01:56:00;14.65;;;4.25;;
57071;SDS011;42956;51.366;11.298;2022-11-11T01:58:29;13.50;;;4.07;;
57071;SDS011;42956;51.366;11.298;2022-11-11T02:00:58;9.27;;;4.82;;
57071;SDS011;42956;51.366;11.298;2022-11-11T02:03:27;9.80;;;3.83;;
57071;SDS011;42956;51.366;11.298;2022-11-11T02:05:59;14.43;;;4.22;;
57071;SDS011;42956;51.366;11.298;2022-11-11T02:08:30;14.18;;;4.63;;
57071;SDS011;42956;51.366;11.298;2022-11-11T02:11:01;9.20;;;3.63;;
57071;SDS011;42956;51.366;11.298;2022-11-11T02:13:29;9.93;;;3.78;;
57071;SDS011;42956;51.366;11.298;2022-11-11T02:16:15;12.40;;;4.00;;
57071;SDS011;42956;51.366;11.298;2022-11-11T02:18:43;8.48;;;3.90;;
57071;SDS011;42956;51.366;11.298;2022-11-11T02:21:12;11.05;;;3.78;;
57071;SDS011;42956;51.366;11.298;2022-11-11T02:23:43;11.43;;;3.50;;
57071;SDS011;42956;51.366;11.298;2022-11-11T02:26:14;13.60;;;3.88;;
57071;SDS011;42956;51.366;11.298;2022-11-11T02:28:43;8.52;;;4.28;;
57071;SDS011;42956;51.366;11.298;2022-11-11T02:31:11;6.60;;;3.55;;
57071;SDS011;42956;51.366;11.298;2022-11-11T02:33:40;11.90;;;4.50;;
57071;SDS011;42956;51.366;11.298;2022-11-11T02:36:10;9.38;;;4.05;;
57071;SDS011;42956;51.366;11.298;2022-11-11T02:38:39;17.58;;;5.85;;
57071;SDS011;42956;51.366;11.298;2022-11-11T02:41:07;8.73;;;4.90;;
57071;SDS011;42956;51.366;11.298;2022-11-11T02:43:54;12.77;;;3.60;;
57071;SDS011;42956;51.366;11.298;2022-11-11T02:46:22;18.70;;;4.53;;
57071;SDS011;42956;51.366;11.298;2022-11-11T02:48:50;13.45;;;4.43;;
57071;SDS011;42956;51.366;11.298;2022-11-11T02:51:18;8.45;;;4.63;;
57071;SDS011;42956;51.366;11.298;2022-11-11T02:53:46;13.50;;;5.05;;
57071;SDS011;42956;51.366;11.298;2022-11-11T02:56:14;18.60;;;5.55;;
57071;SDS011;42956;51.366;11.298;2022-11-11T02:59:04;7.93;;;4.00;;
57071;SDS011;42956;51.366;11.298;2022-11-11T03:01:32;10.73;;;5.05;;
57071;SDS011;42956;51.366;11.298;2022-11-11T03:04:00;10.50;;;4.65;;
57071;SDS011;42956;51.366;11.298;2022-11-11T03:06:29;18.17;;;4.72;;
57071;SDS011;42956;51.366;11.298;2022-11-11T03:08:57;14.20;;;5.57;;
57071;SDS011;42956;51.366;11.298;2022-11-11T03:11:25;12.77;;;4.80;;
57071;SDS011;42956;51.366;11.298;2022-11-11T03:13:54;12.88;;;4.97;;
57071;SDS011;42956;51.366;11.298;2022-11-11T03:16:26;8.38;;;3.78;;
57071;SDS011;42956;51.366;11.298;2022-11-11T03:21:35;15.52;;;4.85;;
57071;SDS011;42956;51.366;11.298;2022-11-11T03:24:23;20.15;;;7.85;;
57071;SDS011;42956;51.366;11.298;2022-11-11T03:27:11;25.27;;;6.85;;
57071;SDS011;42956;51.366;11.298;2022-11-11T03:29:39;18.77;;;6.20;;
57071;SDS011;42956;51.366;11.298;2022-11-11T03:32:10;17.83;;;6.40;;
57071;SDS011;42956;51.366;11.298;2022-11-11T03:34:38;15.50;;;5.20;;
57071;SDS011;42956;51.366;11.298;2022-11-11T03:37:07;17.67;;;6.50;;
57071;SDS011;42956;51.366;11.298;2022-11-11T03:39:53;12.45;;;5.53;;
57071;SDS011;42956;51.366;11.298;2022-11-11T03:42:21;14.35;;;5.25;;
57071;SDS011;42956;51.366;11.298;2022-11-11T03:44:49;11.80;;;5.07;;
57071;SDS011;42956;51.366;11.298;2022-11-11T03:47:18;15.13;;;4.88;;
57071;SDS011;42956;51.366;11.298;2022-11-11T03:49:46;19.70;;;5.10;;
57071;SDS011;42956;51.366;11.298;2022-11-11T03:52:15;11.88;;;5.13;;
57071;SDS011;42956;51.366;11.298;2022-11-11T03:54:43;10.65;;;4.07;;
57071;SDS011;42956;51.366;11.298;2022-11-11T03:57:11;9.65;;;4.20;;
57071;SDS011;42956;51.366;11.298;2022-11-11T03:59:55;8.95;;;3.70;;
57071;SDS011;42956;51.366;11.298;2022-11-11T04:02:25;10.23;;;3.83;;
57071;SDS011;42956;51.366;11.298;2022-11-11T04:05:10;8.73;;;4.43;;
57071;SDS011;42956;51.366;11.298;2022-11-11T04:08:08;12.82;;;4.10;;
57071;SDS011;42956;51.366;11.298;2022-11-11T04:10:55;11.63;;;4.32;;
57071;SDS011;42956;51.366;11.298;2022-11-11T04:13:23;12.07;;;3.72;;
57071;SDS011;42956;51.366;11.298;2022-11-11T04:16:09;13.02;;;4.07;;
57071;SDS011;42956;51.366;11.298;2022-11-11T04:18:38;8.77;;;3.97;;
57071;SDS011;42956;51.366;11.298;2022-11-11T04:21:24;8.90;;;3.50;;
57071;SDS011;42956;51.366;11.298;2022-11-11T04:24:10;12.00;;;4.38;;
57071;SDS011;42956;51.366;11.298;2022-11-11T04:26:56;9.02;;;3.50;;
57071;SDS011;42956;51.366;11.298;2022-11-11T04:29:25;13.82;;;4.25;;
57071;SDS011;42956;51.366;11.298;2022-11-11T04:31:57;7.97;;;5.50;;
57071;SDS011;42956;51.366;11.298;2022-11-11T04:34:45;13.52;;;5.00;;
57071;SDS011;42956;51.366;11.298;2022-11-11T04:37:13;6.35;;;3.78;;
57071;SDS011;42956;51.366;11.298;2022-11-11T04:39:41;10.63;;;3.78;;
57071;SDS011;42956;51.366;11.298;2022-11-11T04:42:28;10.95;;;4.00;;
57071;SDS011;42956;51.366;11.298;2022-11-11T04:44:56;8.93;;;4.15;;
57071;SDS011;42956;51.366;11.298;2022-11-11T04:47:51;12.27;;;5.13;;
57071;SDS011;42956;51.366;11.298;2022-11-11T04:50:21;13.48;;;4.60;;
57071;SDS011;42956;51.366;11.298;2022-11-11T04:52:49;10.90;;;4.07;;
57071;SDS011;42956;51.366;11.298;2022-11-11T04:55:16;8.25;;;3.33;;
57071;SDS011;42956;51.366;11.298;2022-11-11T04:58:02;10.52;;;3.42;;
57071;SDS011;42956;51.366;11.298;2022-11-11T05:00:30;12.45;;;3.50;;
57071;SDS011;42956;51.366;11.298;2022-11-11T05:02:58;9.32;;;4.53;;
57071;SDS011;42956;51.366;11.298;2022-11-11T05:05:46;10.60;;;3.45;;
57071;SDS011;42956;51.366;11.298;2022-11-11T05:08:32;10.75;;;3.38;;
57071;SDS011;42956;51.366;11.298;2022-11-11T05:11:17;10.60;;;3.55;;
57071;SDS011;42956;51.366;11.298;2022-11-11T05:13:45;11.00;;;3.40;;
57071;SDS011;42956;51.366;11.298;2022-11-11T05:16:36;10.30;;;4.40;;
57071;SDS011;42956;51.366;11.298;2022-11-11T05:19:22;6.00;;;3.33;;
57071;SDS011;42956;51.366;11.298;2022-11-11T05:22:10;9.18;;;3.88;;
57071;SDS011;42956;51.366;11.298;2022-11-11T05:24:42;8.90;;;3.40;;
57071;SDS011;42956;51.366;11.298;2022-11-11T05:27:28;9.05;;;5.15;;
57071;SDS011;42956;51.366;11.298;2022-11-11T05:29:56;9.98;;;4.40;;
57071;SDS011;42956;51.366;11.298;2022-11-11T05:32:25;10.35;;;4.28;;
57071;SDS011;42956;51.366;11.298;2022-11-11T05:34:53;7.72;;;3.95;;
57071;SDS011;42956;51.366;11.298;2022-11-11T05:37:22;8.88;;;4.30;;
57071;SDS011;42956;51.366;11.298;2022-11-11T05:39:50;9.93;;;4.90;;
57071;SDS011;42956;51.366;11.298;2022-11-11T05:42:18;16.92;;;4.72;;
57071;SDS011;42956;51.366;11.298;2022-11-11T05:44:47;12.38;;;3.60;;
57071;SDS011;42956;51.366;11.298;2022-11-11T05:47:15;14.88;;;4.30;;
57071;SDS011;42956;51.366;11.298;2022-11-11T05:49:43;9.77;;;3.92;;
57071;SDS011;42956;51.366;11.298;2022-11-11T05:52:11;10.73;;;3.58;;
57071;SDS011;42956;51.366;11.298;2022-11-11T05:54:41;16.15;;;5.22;;
57071;SDS011;42956;51.366;11.298;2022-11-11T05:57:09;9.80;;;3.63;;
57071;SDS011;42956;51.366;11.298;2022-11-11T05:59:36;7.40;;;3.78;;
57071;SDS011;42956;51.366;11.298;2022-11-11T06:02:05;9.43;;;5.22;;
57071;SDS011;42956;51.366;11.298;2022-11-11T06:04:33;13.60;;;4.60;;
57071;SDS011;42956;51.366;11.298;2022-11-11T06:07:01;8.95;;;3.47;;
57071;SDS011;42956;51.366;11.298;2022-11-11T06:09:29;10.65;;;3.45;;
57071;SDS011;42956;51.366;11.298;2022-11-11T06:11:59;10.35;;;4.85;;
57071;SDS011;42956;51.366;11.298;2022-11-11T06:14:27;13.50;;;3.92;;
57071;SDS011;42956;51.366;11.298;2022-11-11T06:16:55;11.20;;;3.88;;
57071;SDS011;42956;51.366;11.298;2022-11-11T06:19:24;13.30;;;4.90;;
57071;SDS011;42956;51.366;11.298;2022-11-11T06:21:55;11.45;;;4.50;;
57071;SDS011;42956;51.366;11.298;2022-11-11T06:24:27;9.40;;;4.65;;
57071;SDS011;42956;51.366;11.298;2022-11-11T06:26:55;12.95;;;5.45;;
57071;SDS011;42956;51.366;11.298;2022-11-11T06:29:24;14.57;;;4.18;;
57071;SDS011;42956;51.366;11.298;2022-11-11T06:31:53;14.85;;;4.10;;
57071;SDS011;42956;51.366;11.298;2022-11-11T06:34:22;10.50;;;4.65;;
57071;SDS011;42956;51.366;11.298;2022-11-11T06:36:50;11.65;;;5.05;;
57071;SDS011;42956;51.366;11.298;2022-11-11T06:39:19;13.38;;;4.43;;
57071;SDS011;42956;51.366;11.298;2022-11-11T06:41:47;10.07;;;3.63;;
57071;SDS011;42956;51.366;11.298;2022-11-11T06:44:14;9.45;;;3.53;;
57071;SDS011;42956;51.366;11.298;2022-11-11T06:46:44;13.80;;;4.30;;
57071;SDS011;42956;51.366;11.298;2022-11-11T06:49:12;16.10;;;4.28;;
57071;SDS011;42956;51.366;11.298;2022-11-11T06:51:39;12.05;;;4.03;;
57071;SDS011;42956;51.366;11.298;2022-11-11T06:54:08;6.80;;;3.53;;
57071;SDS011;42956;51.366;11.298;2022-11-11T06:56:35;10.82;;;3.75;;
57071;SDS011;42956;51.366;11.298;2022-11-11T06:59:03;10.82;;;4.50;;
57071;SDS011;42956;51.366;11.298;2022-11-11T07:01:31;7.45;;;3.78;;
57071;SDS011;42956;51.366;11.298;2022-11-11T07:04:03;14.25;;;4.40;;
57071;SDS011;42956;51.366;11.298;2022-11-11T07:06:31;17.95;;;5.30;;
57071;SDS011;42956;51.366;11.298;2022-11-11T07:08:59;16.38;;;6.25;;
57071;SDS011;42956;51.366;11.298;2022-11-11T07:11:27;13.90;;;5.53;;
57071;SDS011;42956;51.366;11.298;2022-11-11T07:13:57;14.93;;;5.13;;
57071;SDS011;42956;51.366;11.298;2022-11-11T07:16:24;14.15;;;4.50;;
57071;SDS011;42956;51.366;11.298;2022-11-11T07:18:52;16.35;;;5.65;;
57071;SDS011;42956;51.366;11.298;2022-11-11T07:21:22;23.45;;;6.05;;
57071;SDS011;42956;51.366;11.298;2022-11-11T07:23:49;9.88;;;5.43;;
57071;SDS011;42956;51.366;11.298;2022-11-11T07:26:17;8.18;;;4.25;;
57071;SDS011;42956;51.366;11.298;2022-11-11T07:28:45;13.32;;;4.28;;
57071;SDS011;42956;51.366;11.298;2022-11-11T07:31:13;12.57;;;4.15;;
57071;SDS011;42956;51.366;11.298;2022-11-11T07:33:41;8.40;;;3.60;;
57071;SDS011;42956;51.366;11.298;2022-11-11T07:36:09;6.63;;;3.35;;
57071;SDS011;42956;51.366;11.298;2022-11-11T07:38:39;7.22;;;3.20;;
57071;SDS011;42956;51.366;11.298;2022-11-11T07:41:09;7.35;;;3.28;;
57071;SDS011;42956;51.366;11.298;2022-11-11T07:43:39;11.90;;;3.33;;
57071;SDS011;42956;51.366;11.298;2022-11-11T07:46:07;7.85;;;3.50;;
57071;SDS011;42956;51.366;11.298;2022-11-11T07:48:35;9.65;;;3.90;;
57071;SDS011;42956;51.366;11.298;2022-11-11T07:51:03;7.82;;;3.33;;
57071;SDS011;42956;51.366;11.298;2022-11-11T07:53:31;10.07;;;2.78;;
57071;SDS011;42956;51.366;11.298;2022-11-11T07:56:00;8.82;;;2.70;;
57071;SDS011;42956;51.366;11.298;2022-11-11T07:58:29;9.77;;;3.10;;
57071;SDS011;42956;51.366;11.298;2022-11-11T08:00:58;11.30;;;3.25;;
57071;SDS011;42956;51.366;11.298;2022-11-11T08:03:33;5.43;;;2.75;;
57071;SDS011;42956;51.366;11.298;2022-11-11T08:06:00;8.77;;;2.75;;
57071;SDS011;42956;51.366;11.298;2022-11-11T08:08:29;7.22;;;2.85;;
57071;SDS011;42956;51.366;11.298;2022-11-11T08:11:01;9.93;;;3.08;;
57071;SDS011;42956;51.366;11.298;2022-11-11T08:13:29;10.80;;;2.88;;
57071;SDS011;42956;51.366;11.298;2022-11-11T08:16:10;8.93;;;3.10;;
57071;SDS011;42956;51.366;11.298;2022-11-11T08:18:40;5.40;;;3.10;;
57071;SDS011;42956;51.366;11.298;2022-11-11T08:21:11;6.75;;;2.88;;
57071;SDS011;42956;51.366;11.298;2022-11-11T08:23:39;9.40;;;3.92;;
57071;SDS011;42956;51.366;11.298;2022-11-11T08:26:28;10.85;;;2.58;;
57071;SDS011;42956;51.366;11.298;2022-11-11T08:28:56;7.07;;;2.65;;
57071;SDS011;42956;51.366;11.298;2022-11-11T08:31:24;6.88;;;3.30;;
57071;SDS011;42956;51.366;11.298;2022-11-11T08:33:53;10.10;;;3.08;;
57071;SDS011;42956;51.366;11.298;2022-11-11T08:36:21;9.93;;;2.78;;
57071;SDS011;42956;51.366;11.298;2022-11-11T08:38:51;9.13;;;2.83;;
57071;SDS011;42956;51.366;11.298;2022-11-11T08:41:19;13.32;;;2.97;;
57071;SDS011;42956;51.366;11.298;2022-11-11T08:43:53;12.15;;;3.55;;
57071;SDS011;42956;51.366;11.298;2022-11-11T08:46:25;12.00;;;3.00;;
57071;SDS011;42956;51.366;11.298;2022-11-11T08:48:53;10.88;;;2.53;;
57071;SDS011;42956;51.366;11.298;2022-11-11T08:51:21;9.63;;;3.17;;
57071;SDS011;42956;51.366;11.298;2022-11-11T08:53:49;5.72;;;2.72;;
57071;SDS011;42956;51.366;11.298;2022-11-11T08:56:17;7.75;;;2.55;;
57071;SDS011;42956;51.366;11.298;2022-11-11T08:58:45;9.27;;;3.08;;
57071;SDS011;42956;51.366;11.298;2022-11-11T09:01:22;8.38;;;3.17;;
57071;SDS011;42956;51.366;11.298;2022-11-11T09:03:54;7.05;;;2.67;;
57071;SDS011;42956;51.366;11.298;2022-11-11T09:06:46;11.80;;;2.78;;
57071;SDS011;42956;51.366;11.298;2022-11-11T09:09:15;7.32;;;3.33;;
57071;SDS011;42956;51.366;11.298;2022-11-11T09:11:42;7.35;;;2.75;;
57071;SDS011;42956;51.366;11.298;2022-11-11T09:14:12;6.45;;;2.92;;
57071;SDS011;42956;51.366;11.298;2022-11-11T09:16:41;8.48;;;3.35;;
57071;SDS011;42956;51.366;11.298;2022-11-11T09:19:10;11.48;;;3.45;;
57071;SDS011;42956;51.366;11.298;2022-11-11T09:21:37;8.55;;;3.55;;
57071;SDS011;42956;51.366;11.298;2022-11-11T09:24:05;9.43;;;3.97;;
57071;SDS011;42956;51.366;11.298;2022-11-11T09:26:33;13.52;;;5.43;;
57071;SDS011;42956;51.366;11.298;2022-11-11T09:29:01;12.90;;;3.30;;
57071;SDS011;42956;51.366;11.298;2022-11-11T09:31:30;5.65;;;2.35;;
57071;SDS011;42956;51.366;11.298;2022-11-11T09:34:14;6.72;;;2.08;;
57071;SDS011;42956;51.366;11.298;2022-11-11T09:36:44;9.80;;;2.83;;
57071;SDS011;42956;51.366;11.298;2022-11-11T09:39:12;8.70;;;3.03;;
57071;SDS011;42956;51.366;11.298;2022-11-11T09:41:43;5.45;;;2.17;;
57071;SDS011;42956;51.366;11.298;2022-11-11T09:44:40;11.37;;;2.53;;
57071;SDS011;42956;51.366;11.298;2022-11-11T09:47:09;3.45;;;1.77;;
57071;SDS011;42956;51.366;11.298;2022-11-11T09:49:45;6.55;;;1.83;;
57071;SDS011;42956;51.366;11.298;2022-11-11T09:52:17;3.72;;;1.90;;
57071;SDS011;42956;51.366;11.298;2022-11-11T09:54:52;5.95;;;1.90;;
57071;SDS011;42956;51.366;11.298;2022-11-11T09:57:26;7.00;;;1.80;;
57071;SDS011;42956;51.366;11.298;2022-11-11T09:59:59;8.38;;;2.15;;
57071;SDS011;42956;51.366;11.298;2022-11-11T10:02:29;5.10;;;1.98;;
57071;SDS011;42956;51.366;11.298;2022-11-11T10:05:04;4.70;;;2.42;;
57071;SDS011;42956;51.366;11.298;2022-11-11T10:07:34;9.45;;;2.38;;
57071;SDS011;42956;51.366;11.298;2022-11-11T10:10:05;8.02;;;2.50;;
57071;SDS011;42956;51.366;11.298;2022-11-11T10:12:36;4.05;;;2.17;;
57071;SDS011;42956;51.366;11.298;2022-11-11T10:15:10;7.55;;;2.47;;
57071;SDS011;42956;51.366;11.298;2022-11-11T10:17:44;7.53;;;2.45;;
57071;SDS011;42956;51.366;11.298;2022-11-11T10:20:16;5.03;;;2.27;;
57071;SDS011;42956;51.366;11.298;2022-11-11T10:22:45;8.05;;;2.30;;
57071;SDS011;42956;51.366;11.298;2022-11-11T10:25:17;8.10;;;2.95;;
57071;SDS011;42956;51.366;11.298;2022-11-11T10:27:47;4.63;;;2.03;;
57071;SDS011;42956;51.366;11.298;2022-11-11T10:30:16;8.30;;;2.20;;
57071;SDS011;42956;51.366;11.298;2022-11-11T10:32:46;9.43;;;3.90;;
57071;SDS011;42956;51.366;11.298;2022-11-11T10:35:19;10.52;;;4.10;;
57071;SDS011;42956;51.366;11.298;2022-11-11T10:37:50;8.15;;;3.42;;
57071;SDS011;42956;51.366;11.298;2022-11-11T10:40:24;4.82;;;2.10;;
57071;SDS011;42956;51.366;11.298;2022-11-11T10:42:54;8.13;;;2.85;;
57071;SDS011;42956;51.366;11.298;2022-11-11T10:45:23;5.80;;;2.60;;
57071;SDS011;42956;51.366;11.298;2022-11-11T10:47:54;4.43;;;2.45;;
57071;SDS011;42956;51.366;11.298;2022-11-11T10:50:25;4.07;;;1.88;;
57071;SDS011;42956;51.366;11.298;2022-11-11T10:55:26;5.97;;;2.65;;
57071;SDS011;42956;51.366;11.298;2022-11-11T10:57:56;3.85;;;1.98;;
57071;SDS011;42956;51.366;11.298;2022-11-11T11:00:26;6.75;;;2.28;;
57071;SDS011;42956;51.366;11.298;2022-11-11T11:02:56;4.72;;;2.42;;
57071;SDS011;42956;51.366;11.298;2022-11-11T11:05:27;7.60;;;2.35;;
57071;SDS011;42956;51.366;11.298;2022-11-11T11:10:27;6.07;;;1.90;;
57071;SDS011;42956;51.366;11.298;2022-11-11T11:13:05;5.10;;;2.15;;
57071;SDS011;42956;51.366;11.298;2022-11-11T11:15:34;7.85;;;2.33;;
57071;SDS011;42956;51.366;11.298;2022-11-11T11:18:04;4.70;;;1.90;;
57071;SDS011;42956;51.366;11.298;2022-11-11T11:20:35;4.80;;;1.60;;
57071;SDS011;42956;51.366;11.298;2022-11-11T11:23:02;2.75;;;1.45;;
57071;SDS011;42956;51.366;11.298;2022-11-11T11:25:31;6.15;;;1.63;;
57071;SDS011;42956;51.366;11.298;2022-11-11T11:28:06;6.95;;;1.85;;
57071;SDS011;42956;51.366;11.298;2022-11-11T11:30:35;3.67;;;1.38;;
57071;SDS011;42956;51.366;11.298;2022-11-11T11:33:07;2.40;;;1.40;;
57071;SDS011;42956;51.366;11.298;2022-11-11T11:35:37;3.60;;;1.35;;
57071;SDS011;42956;51.366;11.298;2022-11-11T11:38:05;4.78;;;1.40;;
57071;SDS011;42956;51.366;11.298;2022-11-11T11:40:50;6.50;;;1.45;;
57071;SDS011;42956;51.366;11.298;2022-11-11T11:43:25;9.75;;;2.83;;
57071;SDS011;42956;51.366;11.298;2022-11-11T11:45:54;4.80;;;1.80;;
57071;SDS011;42956;51.366;11.298;2022-11-11T11:48:24;9.27;;;2.35;;
57071;SDS011;42956;51.366;11.298;2022-11-11T11:51:01;2.78;;;1.20;;
57071;SDS011;42956;51.366;11.298;2022-11-11T11:53:38;9.98;;;1.85;;
57071;SDS011;42956;51.366;11.298;2022-11-11T11:56:14;7.03;;;1.90;;
57071;SDS011;42956;51.366;11.298;2022-11-11T11:58:51;2.83;;;0.85;;
57071;SDS011;42956;51.366;11.298;2022-11-11T12:01:21;1.85;;;1.13;;
57071;SDS011;42956;51.366;11.298;2022-11-11T12:03:55;5.03;;;0.90;;
57071;SDS011;42956;51.366;11.298;2022-11-11T12:06:28;4.47;;;1.35;;
57071;SDS011;42956;51.366;11.298;2022-11-11T12:09:03;5.68;;;1.63;;
57071;SDS011;42956;51.366;11.298;2022-11-11T12:11:35;3.78;;;1.42;;
57071;SDS011;42956;51.366;11.298;2022-11-11T12:14:13;3.13;;;1.20;;
57071;SDS011;42956;51.366;11.298;2022-11-11T12:16:43;7.28;;;2.03;;
57071;SDS011;42956;51.366;11.298;2022-11-11T12:19:21;2.20;;;1.20;;
57071;SDS011;42956;51.366;11.298;2022-11-11T12:21:55;3.83;;;1.63;;
57071;SDS011;42956;51.366;11.298;2022-11-11T12:24:30;3.38;;;1.30;;
57071;SDS011;42956;51.366;11.298;2022-11-11T12:27:03;4.05;;;0.90;;
57071;SDS011;42956;51.366;11.298;2022-11-11T12:29:37;3.75;;;0.90;;
57071;SDS011;42956;51.366;11.298;2022-11-11T12:32:15;4.07;;;1.17;;
57071;SDS011;42956;51.366;11.298;2022-11-11T12:34:57;3.60;;;1.08;;
57071;SDS011;42956;51.366;11.298;2022-11-11T12:37:32;6.60;;;1.10;;
57071;SDS011;42956;51.366;11.298;2022-11-11T12:40:06;2.78;;;0.80;;
57071;SDS011;42956;51.366;11.298;2022-11-11T12:42:45;3.10;;;0.98;;
57071;SDS011;42956;51.366;11.298;2022-11-11T12:45:17;1.98;;;0.70;;
57071;SDS011;42956;51.366;11.298;2022-11-11T12:47:47;4.30;;;1.00;;
57071;SDS011;42956;51.366;11.298;2022-11-11T12:50:20;1.83;;;0.93;;
57071;SDS011;42956;51.366;11.298;2022-11-11T12:53:03;2.90;;;0.70;;
57071;SDS011;42956;51.366;11.298;2022-11-11T12:55:37;2.97;;;1.20;;
57071;SDS011;42956;51.366;11.298;2022-11-11T12:58:14;1.95;;;0.98;;
57071;SDS011;42956;51.366;11.298;2022-11-11T13:00:49;2.83;;;0.70;;
57071;SDS011;42956;51.366;11.298;2022-11-11T13:03:29;1.77;;;0.90;;
57071;SDS011;42956;51.366;11.298;2022-11-11T13:06:02;2.95;;;1.02;;
57071;SDS011;42956;51.366;11.298;2022-11-11T13:08:40;3.42;;;0.82;;
57071;SDS011;42956;51.366;11.298;2022-11-11T13:11:11;2.40;;;0.80;;
57071;SDS011;42956;51.366;11.298;2022-11-11T13:13:45;4.05;;;0.90;;
57071;SDS011;42956;51.366;11.298;2022-11-11T13:18:44;5.05;;;1.05;;
57071;SDS011;42956;51.366;11.298;2022-11-11T13:21:16;4.03;;;1.40;;
57071;SDS011;42956;51.366;11.298;2022-11-11T13:23:46;1.30;;;0.90;;
57071;SDS011;42956;51.366;11.298;2022-11-11T13:26:21;1.63;;;1.52;;
57071;SDS011;42956;51.366;11.298;2022-11-11T13:28:53;4.55;;;0.95;;
57071;SDS011;42956;51.366;11.298;2022-11-11T13:31:24;4.25;;;0.90;;
57071;SDS011;42956;51.366;11.298;2022-11-11T13:33:53;2.13;;;0.60;;
57071;SDS011;42956;51.366;11.298;2022-11-11T13:36:23;1.83;;;1.40;;
57071;SDS011;42956;51.366;11.298;2022-11-11T13:38:54;3.30;;;1.35;;
57071;SDS011;42956;51.366;11.298;2022-11-11T13:41:23;3.53;;;0.82;;
57071;SDS011;42956;51.366;11.298;2022-11-11T13:43:53;3.70;;;1.00;;
57071;SDS011;42956;51.366;11.298;2022-11-11T13:46:30;1.67;;;0.90;;
57071;SDS011;42956;51.366;11.298;2022-11-11T13:48:58;3.10;;;1.45;;
57071;SDS011;42956;51.366;11.298;2022-11-11T13:51:29;2.70;;;1.23;;
57071;SDS011;42956;51.366;11.298;2022-11-11T13:53:59;2.97;;;1.38;;
57071;SDS011;42956;51.366;11.298;2022-11-11T13:56:31;4.15;;;1.70;;
57071;SDS011;42956;51.366;11.298;2022-11-11T13:59:01;2.53;;;1.00;;
57071;SDS011;42956;51.366;11.298;2022-11-11T14:01:32;4.55;;;1.25;;
57071;SDS011;42956;51.366;11.298;2022-11-11T14:04:08;1.98;;;0.88;;
57071;SDS011;42956;51.366;11.298;2022-11-11T14:09:51;2.88;;;1.00;;
57071;SDS011;42956;51.366;11.298;2022-11-11T14:12:20;4.68;;;1.13;;
57071;SDS011;42956;51.366;11.298;2022-11-11T14:14:54;2.97;;;1.08;;
57071;SDS011;42956;51.366;11.298;2022-11-11T14:17:22;4.20;;;2.03;;
57071;SDS011;42956;51.366;11.298;2022-11-11T14:19:51;2.80;;;1.08;;
57071;SDS011;42956;51.366;11.298;2022-11-11T14:22:28;4.82;;;1.25;;
57071;SDS011;42956;51.366;11.298;2022-11-11T14:25:10;4.45;;;1.20;;
57071;SDS011;42956;51.366;11.298;2022-11-11T14:27:45;3.13;;;1.40;;
57071;SDS011;42956;51.366;11.298;2022-11-11T14:30:31;2.45;;;1.13;;
57071;SDS011;42956;51.366;11.298;2022-11-11T14:33:00;5.85;;;1.92;;
57071;SDS011;42956;51.366;11.298;2022-11-11T14:35:32;3.33;;;1.10;;
57071;SDS011;42956;51.366;11.298;2022-11-11T14:38:25;2.88;;;0.82;;
57071;SDS011;42956;51.366;11.298;2022-11-11T14:40:56;4.78;;;1.63;;
57071;SDS011;42956;51.366;11.298;2022-11-11T14:43:34;2.20;;;1.20;;
57071;SDS011;42956;51.366;11.298;2022-11-11T14:46:03;6.47;;;1.15;;
57071;SDS011;42956;51.366;11.298;2022-11-11T14:57:02;5.03;;;1.10;;
57071;SDS011;42956;51.366;11.298;2022-11-11T14:59:30;3.72;;;1.02;;
57071;SDS011;42956;51.366;11.298;2022-11-11T15:01:59;5.55;;;1.25;;
57071;SDS011;42956;51.366;11.298;2022-11-11T15:04:35;3.83;;;1.45;;
57071;SDS011;42956;51.366;11.298;2022-11-11T15:07:04;3.00;;;1.40;;
57071;SDS011;42956;51.366;11.298;2022-11-11T15:12:35;5.07;;;2.03;;
57071;SDS011;42956;51.366;11.298;2022-11-11T15:15:08;3.97;;;1.30;;
57071;SDS011;42956;51.366;11.298;2022-11-11T15:17:38;2.40;;;1.50;;
57071;SDS011;42956;51.366;11.298;2022-11-11T15:20:16;2.83;;;1.45;;
57071;SDS011;42956;51.366;11.298;2022-11-11T15:22:48;2.95;;;1.45;;
57071;SDS011;42956;51.366;11.298;2022-11-11T15:25:23;1.88;;;1.30;;